Time;durP1;ratioP1;P1;durP2;ratioP2;P2;SDS_P1;SDS_P2;PMS_P1;PMS_P2;Temp;Humidity;BMP_temperature;BMP_pressure;BME280_temperature;BME280_humidity;BME280_pressure;Samples;Min_cycle;Max_cycle;Signal;HPM_P1;HPM_P2
2021/07/04 00:02:12;;;;;;;15.03;5.10;;;;;;;17.46;99.17;99771.47;1691919;83;21027;-38
2021/07/04 00:04:39;;;;;;;11.53;5.72;;;;;;;17.44;99.22;99766.79;1667792;85;20925;-39
2021/07/04 00:07:05;;;;;;;16.73;4.80;;;;;;;17.42;99.19;99763.42;1698213;80;20915;-38
2021/07/04 00:09:33;;;;;;;7.55;4.60;;;;;;;17.42;99.32;99767.34;1741206;80;20986;-40
2021/07/04 00:12:00;;;;;;;16.50;4.67;;;;;;;17.42;99.50;99762.56;1740992;80;21013;-38
2021/07/04 00:14:26;;;;;;;12.33;4.33;;;;;;;17.41;99.52;99770.04;1735249;80;21045;-40
2021/07/04 00:16:54;;;;;;;6.60;4.55;;;;;;;17.38;99.52;99760.61;1736169;80;21035;-39
2021/07/04 00:19:21;;;;;;;9.85;4.40;;;;;;;17.38;99.68;99761.92;1745583;80;20860;-41
2021/07/04 00:21:49;;;;;;;7.42;4.95;;;;;;;17.38;99.75;99760.13;1732535;80;21149;-38
2021/07/04 00:24:16;;;;;;;9.58;4.67;;;;;;;17.39;99.73;99753.14;1739138;80;21002;-39
2021/07/04 00:26:42;;;;;;;15.20;5.00;;;;;;;17.36;99.65;99746.30;1739243;80;21005;-41
2021/07/04 00:29:08;;;;;;;9.80;4.75;;;;;;;17.35;99.70;99747.72;1684179;83;21013;-40
2021/07/04 00:31:35;;;;;;;13.93;5.67;;;;;;;17.32;99.69;99747.42;1738863;80;20974;-41
2021/07/04 00:34:02;;;;;;;15.53;5.08;;;;;;;17.30;99.75;99751.05;1729601;80;21050;-41
2021/07/04 00:36:28;;;;;;;12.18;5.58;;;;;;;17.30;99.84;99754.97;1740462;80;20987;-39
2021/07/04 00:38:55;;;;;;;14.53;4.87;;;;;;;17.28;99.88;99751.59;1741444;80;21011;-39
2021/07/04 00:41:22;;;;;;;11.30;4.95;;;;;;;17.24;99.98;99749.16;1741438;80;20926;-40
2021/07/04 00:43:49;;;;;;;13.90;6.10;;;;;;;17.21;99.96;99757.19;1729797;82;20949;-41
2021/07/04 00:46:15;;;;;;;9.28;5.42;;;;;;;17.19;99.98;99756.44;1756343;80;21063;-41
2021/07/04 00:48:43;;;;;;;19.12;6.42;;;;;;;17.17;100.00;99754.83;1729711;80;21542;-41
2021/07/04 00:51:11;;;;;;;12.10;5.10;;;;;;;17.15;100.00;99764.09;1745929;82;20992;-40
2021/07/04 00:53:38;;;;;;;9.33;5.37;;;;;;;17.15;100.00;99769.31;1682085;83;21037;-40
2021/07/04 00:56:05;;;;;;;9.63;5.55;;;;;;;17.13;100.00;99769.87;1674532;83;20973;-40
2021/07/04 00:58:32;;;;;;;11.45;5.90;;;;;;;17.09;100.00;99778.82;1694911;83;21096;-41
2021/07/04 01:01:00;;;;;;;10.23;4.90;;;;;;;17.06;100.00;99778.52;1675799;83;20913;-40
2021/07/04 01:03:27;;;;;;;18.67;5.80;;;;;;;17.05;100.00;99786.43;1709990;83;20988;-39
2021/07/04 01:05:55;;;;;;;13.30;5.95;;;;;;;17.04;100.00;99786.05;1676353;84;21679;-40
2021/07/04 01:08:22;;;;;;;17.32;5.37;;;;;;;17.03;100.00;99791.77;1708312;83;20980;-40
2021/07/04 01:10:49;;;;;;;12.03;5.97;;;;;;;17.03;100.00;99790.91;1657714;84;21117;-39
2021/07/04 01:13:17;;;;;;;14.38;4.90;;;;;;;17.02;100.00;99791.84;1652361;85;21564;-40
2021/07/04 01:15:45;;;;;;;16.15;5.67;;;;;;;17.01;100.00;99787.09;1665812;85;21079;-40
2021/07/04 01:18:12;;;;;;;11.43;5.47;;;;;;;17.01;100.00;99791.45;1670074;84;21015;-39
2021/07/04 01:20:41;;;;;;;16.87;5.05;;;;;;;17.03;100.00;99796.14;1657255;85;21003;-39
2021/07/04 01:23:14;;;;;;;7.25;3.92;;;;;;;17.04;100.00;99799.98;1666895;85;22776;-39
2021/07/04 01:25:48;;;;;;;10.45;4.65;;;;;;;17.08;100.00;99800.67;1659694;84;20917;-40
2021/07/04 01:28:14;;;;;;;9.53;4.75;;;;;;;17.09;100.00;99802.35;1659731;84;21024;-41
2021/07/04 01:30:45;;;;;;;11.97;4.10;;;;;;;17.11;100.00;99798.33;1705258;83;21510;-38
2021/07/04 01:33:11;;;;;;;10.68;4.85;;;;;;;17.14;100.00;99804.69;1671375;85;21056;-38
2021/07/04 01:35:38;;;;;;;10.88;4.15;;;;;;;17.17;100.00;99805.37;1682517;84;21076;-41
2021/07/04 01:38:05;;;;;;;8.60;3.90;;;;;;;17.20;100.00;99799.13;1703347;83;21542;-41
2021/07/04 01:40:31;;;;;;;10.03;4.40;;;;;;;17.23;100.00;99796.34;1644182;85;21562;-41
2021/07/04 01:42:58;;;;;;;14.60;5.05;;;;;;;17.24;100.00;99796.23;1649113;85;21038;-41
2021/07/04 01:45:25;;;;;;;13.53;5.30;;;;;;;17.27;100.00;99798.30;1684121;83;20987;-39
2021/07/04 01:47:54;;;;;;;10.00;4.45;;;;;;;17.29;100.00;99791.20;1685594;85;20917;-41
2021/07/04 01:50:26;;;;;;;9.40;4.28;;;;;;;17.30;100.00;99791.12;1671400;85;21011;-41
2021/07/04 01:52:54;;;;;;;13.90;5.08;;;;;;;17.31;100.00;99799.35;1647954;85;21654;-41
2021/07/04 01:55:23;;;;;;;10.95;4.17;;;;;;;17.32;100.00;99798.91;1655881;85;21023;-41
2021/07/04 01:57:51;;;;;;;9.20;4.30;;;;;;;17.32;100.00;99801.52;1698118;83;20995;-41
2021/07/04 02:00:28;;;;;;;13.90;4.08;;;;;;;17.35;100.00;99802.16;1673986;84;21764;-39
2021/07/04 02:02:57;;;;;;;21.10;4.70;;;;;;;17.36;100.00;99799.09;1665653;85;21048;-39
2021/07/04 02:05:26;;;;;;;11.25;5.22;;;;;;;17.36;100.00;99800.41;1730433;82;21020;-40
2021/07/04 02:07:53;;;;;;;28.42;10.10;;;;;;;17.36;100.00;99800.41;1730894;82;21083;-40
2021/07/04 02:10:24;;;;;;;17.12;6.30;;;;;;;17.35;100.00;99798.72;1746498;82;21501;-38
2021/07/04 02:12:53;;;;;;;34.63;10.03;;;;;;;17.34;100.00;99800.96;1726963;82;21026;-41
2021/07/04 02:15:25;;;;;;;25.57;7.78;;;;;;;17.32;100.00;99806.27;1737988;82;20973;-39
2021/07/04 02:17:56;;;;;;;19.10;7.05;;;;;;;17.32;100.00;99805.44;1725513;82;22246;-38
2021/07/04 02:20:46;;;;;;;7.75;4.35;;;;;;;17.35;100.00;99808.70;1717830;82;21780;-39
2021/07/04 02:23:22;;;;;;;13.43;5.03;;;;;;;17.39;100.00;99813.30;1732699;82;21236;-39
2021/07/04 02:26:07;;;;;;;6.28;4.05;;;;;;;17.43;100.00;99807.41;1724458;82;21950;-42
2021/07/04 02:28:35;;;;;;;13.40;4.83;;;;;;;17.47;100.00;99809.77;1722183;82;20938;-39
2021/07/04 02:31:04;;;;;;;12.90;5.00;;;;;;;17.51;100.00;99809.14;1727732;82;20911;-41
2021/07/04 02:33:32;;;;;;;20.60;11.28;;;;;;;17.56;100.00;99807.58;1728000;82;21573;-41
2021/07/04 02:36:00;;;;;;;21.23;7.50;;;;;;;17.60;100.00;99799.92;1728377;80;20993;-40
2021/07/04 02:38:27;;;;;;;18.87;7.30;;;;;;;17.66;100.00;99799.55;1703791;83;21151;-39
2021/07/04 02:40:55;;;;;;;39.95;12.40;;;;;;;17.75;100.00;99795.56;1706426;83;21016;-40
2021/07/04 02:43:24;;;;;;;37.67;14.03;;;;;;;17.83;100.00;99789.88;1660175;85;21000;-42
2021/07/04 02:45:53;;;;;;;47.90;13.10;;;;;;;17.89;100.00;99787.72;1690601;83;21043;-41
2021/07/04 02:48:20;;;;;;;37.40;6.78;;;;;;;17.95;100.00;99792.61;1671389;85;21008;-41
2021/07/04 02:50:53;;;;;;;33.88;5.83;;;;;;;17.97;99.96;99791.19;1665707;85;20972;-41
2021/07/04 02:53:27;;;;;;;23.92;6.28;;;;;;;18.01;99.99;99795.33;1660581;85;21069;-39
2021/07/04 02:55:54;;;;;;;22.37;5.53;;;;;;;18.03;100.00;99796.08;1685032;85;21035;-39
2021/07/04 02:58:23;;;;;;;21.95;5.20;;;;;;;18.02;100.00;99790.47;1699274;83;21574;-40
2021/07/04 03:00:51;;;;;;;23.42;5.47;;;;;;;18.01;100.00;99786.63;1669196;84;21039;-41
2021/07/04 03:03:18;;;;;;;31.80;6.65;;;;;;;18.04;100.00;99793.01;1685554;83;21821;-41
2021/07/04 03:05:47;;;;;;;28.47;9.23;;;;;;;18.05;99.96;99791.59;1653909;83;20998;-40
2021/07/04 03:08:14;;;;;;;26.45;6.72;;;;;;;18.07;99.81;99800.22;1692347;83;21570;-40
2021/07/04 03:10:42;;;;;;;29.32;5.58;;;;;;;18.06;99.57;99800.30;1686281;85;21515;-40
2021/07/04 03:13:10;;;;;;;13.65;5.62;;;;;;;18.09;99.45;99801.42;1709544;83;20929;-42
2021/07/04 03:15:37;;;;;;;14.20;5.87;;;;;;;18.14;99.29;99801.16;1648045;85;21186;-41
2021/07/04 03:18:04;;;;;;;11.78;5.45;;;;;;;18.15;99.11;99797.59;1730505;82;21012;-40
2021/07/04 03:20:33;;;;;;;13.72;5.10;;;;;;;18.17;99.08;99802.28;1735217;82;21548;-41
2021/07/04 03:23:01;;;;;;;13.08;4.95;;;;;;;18.23;98.91;99803.20;1726357;82;20949;-42
2021/07/04 03:25:28;;;;;;;17.30;5.45;;;;;;;18.24;98.54;99791.34;1699834;82;21511;-41
2021/07/04 03:27:55;;;;;;;14.30;4.87;;;;;;;18.23;98.09;99789.66;1734673;82;21197;-41
2021/07/04 03:30:22;;;;;;;8.60;5.40;;;;;;;18.25;97.73;99796.09;1725516;82;20978;-41
2021/07/04 03:32:50;;;;;;;11.95;4.83;;;;;;;18.28;97.47;99789.35;1729364;82;20984;-41
2021/07/04 03:35:18;;;;;;;12.53;4.78;;;;;;;18.31;96.76;99789.16;1666057;85;21000;-40
2021/07/04 03:37:47;;;;;;;9.70;4.78;;;;;;;18.34;96.29;99795.55;1669741;85;20981;-41
2021/07/04 03:40:18;;;;;;;10.00;4.87;;;;;;;18.38;96.03;99792.25;1721809;82;21128;-41
2021/07/04 03:42:47;;;;;;;20.88;5.70;;;;;;;18.50;95.98;99801.13;1728071;82;20986;-39
2021/07/04 03:45:14;;;;;;;19.02;5.28;;;;;;;18.63;95.62;99800.75;1710429;82;21458;-39
2021/07/04 03:47:43;;;;;;;10.88;5.10;;;;;;;18.83;95.28;99802.59;1730999;82;20953;-39
2021/07/04 03:50:11;;;;;;;11.12;4.67;;;;;;;19.02;94.69;99798.80;1738883;82;20959;-41
2021/07/04 03:52:41;;;;;;;10.68;4.72;;;;;;;19.23;93.89;99788.72;1705822;82;20939;-39
2021/07/04 03:55:11;;;;;;;11.63;4.60;;;;;;;19.49;93.13;99795.34;1736468;82;21454;-41
2021/07/04 03:57:40;;;;;;;13.53;4.50;;;;;;;19.71;92.13;99798.68;1686430;82;21105;-41
2021/07/04 04:00:10;;;;;;;22.05;5.42;;;;;;;19.94;90.91;99798.94;1743681;82;20888;-42
2021/07/04 04:02:47;;;;;;;10.55;4.75;;;;;;;20.14;90.24;99798.88;1703185;82;20966;-41
2021/07/04 04:05:16;;;;;;;10.25;4.37;;;;;;;20.36;88.74;99799.55;1744198;82;21998;-41
2021/07/04 04:07:46;;;;;;;11.50;4.40;;;;;;;20.56;87.54;99805.17;1733901;80;20921;-42
2021/07/04 04:10:14;;;;;;;12.85;4.40;;;;;;;20.71;86.45;99801.92;1727044;82;20966;-41
2021/07/04 04:12:43;;;;;;;10.95;4.47;;;;;;;20.87;85.71;99800.41;1717532;83;20887;-41
2021/07/04 04:15:11;;;;;;;11.50;4.67;;;;;;;21.05;84.99;99802.63;1743235;82;20978;-42
2021/07/04 04:17:40;;;;;;;14.85;4.50;;;;;;;21.24;83.93;99806.91;1731266;82;21788;-42
2021/07/04 04:20:09;;;;;;;7.08;5.00;;;;;;;21.44;82.41;99792.76;1696106;82;21042;-41
2021/07/04 04:22:37;;;;;;;16.80;4.70;;;;;;;21.58;80.67;99795.67;1730808;80;21018;-40
2021/07/04 04:25:05;;;;;;;17.67;5.37;;;;;;;21.71;79.93;99802.20;1727966;82;21478;-40
2021/07/04 04:27:33;;;;;;;8.45;4.87;;;;;;;21.92;78.68;99802.84;1734650;82;21485;-42
2021/07/04 04:30:00;;;;;;;13.93;5.80;;;;;;;22.04;77.80;99801.88;1722401;82;21764;-42
2021/07/04 04:32:28;;;;;;;14.58;5.60;;;;;;;22.18;77.00;99800.81;1744123;82;20963;-42
2021/07/04 04:34:55;;;;;;;14.75;5.15;;;;;;;22.32;76.04;99799.73;1670693;84;21048;-42
2021/07/04 04:37:21;;;;;;;10.23;4.85;;;;;;;22.45;75.73;99800.09;1703359;82;21023;-41
2021/07/04 04:39:47;;;;;;;13.78;5.17;;;;;;;22.66;75.29;99800.21;1745155;82;21522;-42
2021/07/04 04:42:14;;;;;;;7.95;4.47;;;;;;;22.89;74.61;99802.34;1676692;85;21263;-42
2021/07/04 04:44:40;;;;;;;12.93;5.12;;;;;;;23.09;73.38;99805.13;1716282;82;20937;-41
2021/07/04 04:47:07;;;;;;;10.75;4.60;;;;;;;23.24;72.23;99798.61;1725800;82;20920;-42
2021/07/04 04:49:34;;;;;;;11.85;4.70;;;;;;;23.34;71.75;99800.05;1731907;82;20937;-41
2021/07/04 04:52:04;;;;;;;12.90;4.80;;;;;;;23.49;71.16;99800.56;1742251;81;21007;-42
2021/07/04 04:54:31;;;;;;;13.45;5.08;;;;;;;23.64;70.73;99802.91;1738134;82;21234;-42
2021/07/04 04:57:05;;;;;;;11.78;5.00;;;;;;;23.78;70.11;99809.16;1738722;82;20895;-42
2021/07/04 04:59:26;;;;;;;13.88;5.15;;;;;;;23.82;69.29;99809.25;1735581;82;20879;-43
2021/07/04 05:01:53;;;;;;;10.53;5.00;;;;;;;23.90;68.62;99811.25;1714225;82;20991;-41
2021/07/04 05:04:19;;;;;;;9.93;4.85;;;;;;;23.89;68.30;99814.04;1701889;83;20983;-44
2021/07/04 05:06:48;;;;;;;11.35;4.95;;;;;;;23.94;67.91;99815.80;1710729;83;21955;-43
2021/07/04 05:09:16;;;;;;;12.45;5.15;;;;;;;23.97;67.23;99812.89;1698982;83;21059;-40
2021/07/04 05:11:44;;;;;;;11.80;5.22;;;;;;;24.03;67.45;99815.03;1616454;86;20978;-40
2021/07/04 05:14:13;;;;;;;9.65;4.83;;;;;;;24.10;67.00;99816.67;1648789;86;21581;-42
2021/07/04 05:16:40;;;;;;;9.05;5.47;;;;;;;24.17;66.09;99817.00;1651019;86;20991;-40
2021/07/04 05:19:07;;;;;;;10.85;5.17;;;;;;;24.22;66.17;99816.92;1658319;85;21119;-43
2021/07/04 05:21:35;;;;;;;9.78;5.58;;;;;;;24.30;65.63;99808.34;1708678;83;21039;-41
2021/07/04 05:24:02;;;;;;;10.95;4.70;;;;;;;24.46;65.32;99804.37;1702755;83;21090;-41
2021/07/04 05:26:29;;;;;;;7.00;4.92;;;;;;;24.63;64.89;99799.77;1695468;83;21059;-42
2021/07/04 05:28:56;;;;;;;14.70;5.60;;;;;;;24.84;64.07;99804.13;1698732;83;21799;-41
2021/07/04 05:31:23;;;;;;;5.60;4.60;;;;;;;25.00;62.89;99796.97;1717216;83;21803;-40
2021/07/04 05:33:49;;;;;;;9.73;5.42;;;;;;;25.13;62.41;99802.49;1705918;83;22021;-40
2021/07/04 05:36:16;;;;;;;10.32;4.87;;;;;;;25.21;61.52;99804.80;1697676;83;21086;-41
2021/07/04 05:38:43;;;;;;;6.17;4.60;;;;;;;25.17;61.36;99806.06;1648276;86;21019;-42
2021/07/04 05:41:12;;;;;;;12.15;4.83;;;;;;;25.23;60.94;99802.84;1648720;86;21004;-40
2021/07/04 05:43:43;;;;;;;7.35;4.55;;;;;;;25.29;61.14;99804.58;1702384;83;21122;-40
2021/07/04 05:46:10;;;;;;;14.58;4.80;;;;;;;25.38;61.21;99802.41;1678651;83;21000;-41
2021/07/04 05:48:38;;;;;;;7.45;4.15;;;;;;;25.57;61.41;99812.67;1677501;83;21008;-42
2021/07/04 05:51:04;;;;;;;7.40;4.42;;;;;;;25.77;59.98;99806.88;1700738;83;21502;-42
2021/07/04 05:53:30;;;;;;;10.35;4.67;;;;;;;25.86;59.64;99817.08;1667648;83;21048;-42
2021/07/04 05:55:57;;;;;;;8.88;4.60;;;;;;;25.90;59.27;99814.01;1704897;83;21091;-41
2021/07/04 05:58:23;;;;;;;12.00;4.67;;;;;;;25.92;59.87;99813.88;1653127;85;21024;-42
2021/07/04 06:00:50;;;;;;;8.13;4.70;;;;;;;25.93;59.29;99819.02;1652568;86;20968;-42
2021/07/04 06:03:16;;;;;;;8.08;4.00;;;;;;;25.84;59.27;99821.22;1693542;83;21029;-42
2021/07/04 06:05:43;;;;;;;15.68;4.90;;;;;;;25.75;59.36;99825.55;1709706;83;20996;-40
2021/07/04 06:08:09;;;;;;;6.12;4.50;;;;;;;25.75;58.52;99824.23;1674979;83;21037;-41
2021/07/04 06:10:36;;;;;;;7.08;4.00;;;;;;;25.88;59.28;99819.95;1691509;83;22051;-42
2021/07/04 06:13:04;;;;;;;8.25;3.95;;;;;;;26.17;57.81;99813.74;1699000;82;20964;-42
2021/07/04 06:15:31;;;;;;;6.33;4.20;;;;;;;26.38;57.31;99804.22;1694553;83;20940;-41
2021/07/04 06:17:57;;;;;;;13.85;4.53;;;;;;;26.65;56.29;99795.08;1702842;83;20999;-43
2021/07/04 06:20:24;;;;;;;8.55;4.00;;;;;;;26.79;54.95;99795.06;1669538;83;21096;-43
2021/07/04 06:22:53;;;;;;;6.58;3.65;;;;;;;26.85;54.64;99795.00;1709991;83;20964;-43
2021/07/04 06:25:18;;;;;;;9.63;4.00;;;;;;;26.96;55.07;99791.62;1705718;83;21498;-43
2021/07/04 06:27:45;;;;;;;6.85;3.40;;;;;;;27.10;52.89;99793.39;1653790;86;21508;-43
2021/07/04 06:30:14;;;;;;;6.00;3.33;;;;;;;27.08;52.52;99790.05;1656145;86;20995;-44
2021/07/04 06:32:41;;;;;;;11.73;3.10;;;;;;;27.10;52.99;99798.70;1638868;86;21183;-41
2021/07/04 06:35:08;;;;;;;4.42;3.47;;;;;;;27.21;53.15;99799.81;1662196;86;21023;-43
2021/07/04 06:37:35;;;;;;;7.12;3.33;;;;;;;27.34;52.65;99799.42;1666034;85;20980;-44
2021/07/04 06:40:03;;;;;;;5.90;2.95;;;;;;;27.42;51.53;99797.81;1649240;86;21597;-41
2021/07/04 06:42:30;;;;;;;8.60;2.92;;;;;;;27.44;50.35;99787.38;1630754;86;20995;-43
2021/07/04 06:44:56;;;;;;;3.67;2.30;;;;;;;27.49;50.10;99788.23;1646025;86;21125;-42
2021/07/04 06:47:22;;;;;;;5.42;2.80;;;;;;;27.58;49.56;99786.50;1644104;86;21036;-43
2021/07/04 06:49:49;;;;;;;7.65;2.10;;;;;;;27.63;48.75;99783.72;1651523;86;21012;-41
2021/07/04 06:52:15;;;;;;;3.05;2.25;;;;;;;27.60;48.09;99780.53;1648077;86;20983;-43
2021/07/04 06:54:42;;;;;;;5.40;2.95;;;;;;;27.72;49.42;99781.11;1655141;86;21003;-43
2021/07/04 06:57:27;;;;;;;5.42;2.58;;;;;;;27.94;48.87;99771.78;1651929;86;21171;-43
2021/07/04 07:00:02;;;;;;;5.47;2.53;;;;;;;28.17;48.74;99772.58;1650178;86;21007;-44
2021/07/04 07:02:31;;;;;;;3.17;2.55;;;;;;;28.32;45.92;99765.64;1679467;83;21047;-46
2021/07/04 07:04:57;;;;;;;3.60;2.50;;;;;;;28.27;47.00;99769.77;1686161;83;20988;-43
2021/07/04 07:07:25;;;;;;;3.80;2.40;;;;;;;28.29;48.33;99767.30;1667616;85;21529;-40
2021/07/04 07:09:53;;;;;;;3.10;2.20;;;;;;;28.48;47.18;99762.71;1692939;83;20972;-42
2021/07/04 07:12:20;;;;;;;4.12;2.40;;;;;;;28.49;45.14;99758.53;1684717;85;21478;-43
2021/07/04 07:14:47;;;;;;;3.10;2.42;;;;;;;28.47;45.96;99763.19;1700310;83;21506;-42
2021/07/04 07:17:15;;;;;;;4.08;2.90;;;;;;;28.51;46.95;99762.38;1695520;82;20967;-40
2021/07/04 07:19:41;;;;;;;3.60;2.67;;;;;;;28.52;45.46;99762.72;1694956;83;21019;-39
2021/07/04 07:22:11;;;;;;;14.13;2.60;;;;;;;28.42;46.82;99763.33;1684266;83;20921;-41
2021/07/04 07:24:38;;;;;;;7.95;2.75;;;;;;;28.46;46.29;99760.71;1659544;83;21003;-43
2021/07/04 07:27:05;;;;;;;9.25;2.30;;;;;;;28.50;45.76;99764.70;1700006;83;21012;-45
2021/07/04 07:29:32;;;;;;;9.13;2.90;;;;;;;28.43;46.72;99758.38;1660343;83;21513;-45
2021/07/04 07:31:59;;;;;;;13.53;2.85;;;;;;;28.48;44.95;99757.39;1707899;83;21709;-46
2021/07/04 07:34:26;;;;;;;8.75;2.35;;;;;;;28.54;45.98;99754.06;1689910;83;21023;-42
2021/07/04 07:36:53;;;;;;;4.55;2.55;;;;;;;28.67;45.18;99762.91;1693198;83;20921;-43
2021/07/04 07:39:20;;;;;;;6.72;2.42;;;;;;;28.78;45.21;99756.44;1686932;83;21000;-39
2021/07/04 07:41:46;;;;;;;14.10;2.77;;;;;;;28.99;45.24;99757.31;1681516;83;21344;-41
2021/07/04 07:44:13;;;;;;;9.15;2.40;;;;;;;29.30;44.73;99753.16;1688334;83;21439;-43
2021/07/04 07:46:40;;;;;;;7.45;2.47;;;;;;;29.67;44.00;99753.96;1656715;85;21151;-43
2021/07/04 07:49:08;;;;;;;16.87;2.87;;;;;;;29.90;42.86;99757.23;1683615;83;21051;-40
2021/07/04 07:51:43;;;;;;;5.15;2.52;;;;;;;29.99;41.66;99752.70;1728813;82;20971;-40
2021/07/04 07:54:11;;;;;;;9.18;2.72;;;;;;;30.09;42.27;99749.34;1730564;82;20912;-42
2021/07/04 07:56:37;;;;;;;4.37;2.10;;;;;;;30.29;42.31;99750.75;1740888;82;20942;-40
2021/07/04 07:59:04;;;;;;;8.05;2.33;;;;;;;30.46;41.79;99752.34;1745854;82;21191;-41
2021/07/04 08:01:32;;;;;;;7.58;2.00;;;;;;;30.58;40.68;99753.29;1741922;82;21516;-40
2021/07/04 08:03:59;;;;;;;7.42;2.40;;;;;;;30.70;41.01;99750.55;1703881;81;21485;-41
2021/07/04 08:06:26;;;;;;;7.60;2.45;;;;;;;30.79;41.39;99747.33;1717804;83;21564;-39
2021/07/04 08:08:52;;;;;;;7.70;2.08;;;;;;;30.85;40.46;99747.13;1717363;83;21038;-39
2021/07/04 08:11:20;;;;;;;13.30;2.35;;;;;;;30.84;40.87;99746.28;1702118;83;22043;-41
2021/07/04 08:13:48;;;;;;;6.97;2.40;;;;;;;30.93;39.47;99739.04;1713421;83;20971;-41
2021/07/04 08:16:16;;;;;;;8.33;1.98;;;;;;;30.79;40.82;99741.98;1672538;83;22255;-43
2021/07/04 08:18:45;;;;;;;7.15;1.98;;;;;;;30.88;40.34;99744.09;1719166;83;20967;-42
2021/07/04 08:21:11;;;;;;;7.72;1.87;;;;;;;30.95;39.79;99740.53;1722149;83;21474;-41
2021/07/04 08:23:38;;;;;;;7.97;2.10;;;;;;;31.10;38.48;99746.41;1710660;81;21829;-40
2021/07/04 08:26:04;;;;;;;7.70;2.22;;;;;;;31.21;38.96;99757.20;1712131;83;21457;-42
2021/07/04 08:28:31;;;;;;;5.15;2.10;;;;;;;31.33;38.61;99759.78;1694353;84;21018;-43
2021/07/04 08:30:57;;;;;;;10.63;2.10;;;;;;;31.45;39.88;99755.31;1698224;83;21011;-40
2021/07/04 08:33:24;;;;;;;7.97;2.35;;;;;;;31.61;40.27;99758.33;1698572;83;20935;-40
2021/07/04 08:35:50;;;;;;;4.40;1.80;;;;;;;31.70;38.68;99759.89;1691850;81;21581;-40
2021/07/04 08:38:18;;;;;;;5.75;2.25;;;;;;;31.44;38.72;99759.81;1719735;81;21587;-40
2021/07/04 08:40:44;;;;;;;5.30;1.65;;;;;;;31.58;37.87;99760.88;1695798;83;21520;-40
2021/07/04 08:43:25;;;;;;;14.23;2.30;;;;;;;31.76;39.03;99766.35;1702154;83;21588;-42
2021/07/04 08:45:51;;;;;;;5.50;2.17;;;;;;;31.89;38.30;99761.23;1720024;83;20971;-42
2021/07/04 08:48:18;;;;;;;7.92;2.00;;;;;;;32.03;37.07;99754.70;1697258;83;21136;-43
2021/07/04 08:50:46;;;;;;;7.33;2.10;;;;;;;32.23;36.73;99757.13;1712160;83;20986;-41
2021/07/04 08:53:12;;;;;;;3.62;1.98;;;;;;;32.20;37.31;99750.81;1703043;83;21007;-43
2021/07/04 08:55:40;;;;;;;3.37;1.95;;;;;;;32.12;37.13;99753.60;1706694;83;20932;-40
2021/07/04 08:58:07;;;;;;;3.42;1.95;;;;;;;32.23;38.14;99749.62;1660444;84;20986;-41
2021/07/04 09:00:33;;;;;;;8.58;2.47;;;;;;;32.09;39.60;99746.77;1705260;83;21140;-41
2021/07/04 09:03:00;;;;;;;8.18;2.20;;;;;;;32.08;38.75;99743.77;1696923;83;20975;-41
2021/07/04 09:05:26;;;;;;;7.17;1.90;;;;;;;32.26;39.38;99747.90;1626863;85;21925;-42
2021/07/04 09:07:53;;;;;;;8.80;1.90;;;;;;;32.42;38.17;99747.37;1596581;86;21495;-40
2021/07/04 09:10:20;;;;;;;3.92;2.02;;;;;;;32.44;36.84;99748.00;1645803;86;20994;-42
2021/07/04 09:12:53;;;;;;;9.80;2.50;;;;;;;32.52;39.20;99745.23;1653501;86;21817;-42
2021/07/04 09:15:25;;;;;;;5.67;2.33;;;;;;;32.77;38.70;99742.17;1637432;86;21067;-40
2021/07/04 09:18:01;;;;;;;9.08;2.17;;;;;;;32.83;37.68;99737.38;1618507;86;20996;-42
2021/07/04 09:20:36;;;;;;;4.28;3.02;;;;;;;32.46;38.27;99727.22;1639967;86;21064;-41
2021/07/04 09:23:03;;;;;;;4.05;2.17;;;;;;;32.13;39.58;99730.33;1613347;86;21027;-39
2021/07/04 09:25:34;;;;;;;12.00;2.77;;;;;;;31.93;39.02;99730.91;1628134;86;21096;-42
2021/07/04 09:28:16;;;;;;;11.63;4.62;;;;;;;31.89;39.45;99722.44;1651664;86;20944;-39
2021/07/04 09:30:54;;;;;;;18.23;10.58;;;;;;;31.67;40.39;99718.81;1621822;86;21068;-40
2021/07/04 09:33:35;;;;;;;11.60;5.53;;;;;;;31.45;40.66;99721.41;1636063;86;20952;-40
2021/07/04 09:36:09;;;;;;;7.45;2.77;;;;;;;31.39;40.65;99717.62;1653065;86;21065;-40
2021/07/04 09:38:43;;;;;;;7.10;2.15;;;;;;;31.39;40.89;99717.62;1640022;86;21131;-40
2021/07/04 09:41:13;;;;;;;4.45;2.12;;;;;;;31.49;40.74;99709.33;1641488;86;22153;-41
2021/07/04 09:43:40;;;;;;;6.78;1.75;;;;;;;31.76;40.80;99713.73;1637531;86;20935;-41
2021/07/04 09:46:10;;;;;;;5.72;2.10;;;;;;;32.04;39.25;99706.37;1650563;86;21032;-41
2021/07/04 09:48:48;;;;;;;5.90;1.70;;;;;;;32.23;39.23;99707.61;1669883;85;21035;-41
2021/07/04 09:51:20;;;;;;;4.20;1.57;;;;;;;32.34;37.06;99696.14;1664514;85;21093;-40
2021/07/04 09:53:50;;;;;;;7.42;2.02;;;;;;;32.29;37.65;99699.83;1641961;86;21541;-40
2021/07/04 09:56:25;;;;;;;5.30;1.80;;;;;;;32.38;35.39;99699.56;1642429;86;21043;-40
2021/07/04 09:58:54;;;;;;;3.72;1.50;;;;;;;32.47;35.38;99699.45;1616762;88;21039;-40
2021/07/04 10:01:45;;;;;;;5.83;1.80;;;;;;;32.18;35.55;99701.16;1618411;88;21016;-40
2021/07/04 10:04:35;;;;;;;6.53;1.80;;;;;;;31.90;37.61;99704.53;1635312;86;21068;-40
2021/07/04 10:07:00;;;;;;;7.17;2.08;;;;;;;32.11;37.08;99700.58;1657324;86;20997;-40
2021/07/04 10:09:29;;;;;;;7.15;1.67;;;;;;;32.22;36.28;99703.27;1659080;86;21087;-40
2021/07/04 10:11:57;;;;;;;10.32;1.52;;;;;;;32.32;35.46;99696.31;1694883;83;20984;-40
2021/07/04 10:14:24;;;;;;;7.25;1.70;;;;;;;32.26;36.01;99699.72;1714744;83;21668;-40
2021/07/04 10:19:27;;;;;;;4.62;2.35;;;;;;;32.16;37.81;99700.02;1770942;79;22577;-41
2021/07/04 10:22:02;;;;;;;6.65;2.22;;;;;;;32.07;39.24;99700.64;1753133;81;21512;-40
2021/07/04 10:24:29;;;;;;;2.90;1.80;;;;;;;32.20;37.71;99695.10;1740368;81;21160;-41
2021/07/04 10:26:57;;;;;;;4.42;1.70;;;;;;;32.43;36.67;99702.17;1725234;82;21015;-41
2021/07/04 10:29:27;;;;;;;6.03;1.65;;;;;;;32.45;35.10;99700.97;1725319;83;21055;-41
2021/07/04 10:31:56;;;;;;;2.92;1.95;;;;;;;32.28;35.70;99699.02;1725162;83;20948;-41
2021/07/04 10:34:27;;;;;;;6.08;2.87;;;;;;;32.31;36.04;99700.47;1696508;83;21050;-41
2021/07/04 10:36:59;;;;;;;3.35;1.98;;;;;;;32.45;36.08;99694.77;1725568;83;20976;-41
2021/07/04 10:39:28;;;;;;;3.47;1.98;;;;;;;32.27;36.59;99691.16;1720741;83;20992;-40
2021/07/04 10:41:58;;;;;;;2.75;2.02;;;;;;;32.10;37.86;99693.57;1724726;83;20947;-41
2021/07/04 10:44:48;;;;;;;7.92;1.70;;;;;;;32.10;38.14;99698.92;1682815;84;21015;-40
2021/07/04 10:47:26;;;;;;;2.52;1.62;;;;;;;32.06;38.83;99690.95;1693270;84;20948;-41
2021/07/04 10:50:12;;;;;;;4.25;2.62;;;;;;;32.15;39.49;99689.49;1678226;84;21074;-41
2021/07/04 10:52:49;;;;;;;8.53;2.42;;;;;;;32.16;39.19;99685.80;1689664;84;21041;-41
2021/07/04 10:55:34;;;;;;;4.00;2.50;;;;;;;32.02;37.18;99689.67;1664500;86;20994;-42
2021/07/04 10:58:04;;;;;;;9.63;2.45;;;;;;;31.82;39.55;99694.27;1648112;86;20977;-40
2021/07/04 11:00:39;;;;;;;5.95;2.08;;;;;;;31.64;39.00;99693.28;1629413;85;20976;-41
2021/07/04 11:03:12;;;;;;;;;;;;;;;31.41;38.50;99686.68;1668180;85;21834;-40
2021/07/04 11:05:44;;;;;;;2.60;1.70;;;;;;;31.28;40.87;99685.98;1663813;85;20160;-41
2021/07/04 11:08:21;;;;;;;4.60;1.90;;;;;;;31.33;41.49;99678.76;1675564;83;21031;-41
2021/07/04 11:11:02;;;;;;;;;;;;;;;31.42;41.29;99678.98;1662179;86;20976;-40
2021/07/04 11:13:36;;;;;;;2.98;2.10;;;;;;;31.40;40.92;99681.02;1661152;85;20115;-41
2021/07/04 11:16:17;;;;;;;4.72;2.30;;;;;;;31.30;40.86;99675.12;1689095;84;21174;-40
2021/07/04 11:18:50;;;;;;;9.20;2.87;;;;;;;31.03;41.04;99675.50;1665346;85;21027;-41
2021/07/04 11:21:25;;;;;;;3.95;2.37;;;;;;;30.70;40.89;99677.12;1639998;85;21617;-41
2021/07/04 11:24:16;;;;;;;13.48;2.52;;;;;;;30.61;41.54;99672.35;1653128;85;20969;-39
2021/07/04 11:26:43;;;;;;;3.40;2.20;;;;;;;30.71;41.03;99677.97;1652544;85;21020;-40
2021/07/04 11:29:12;;;;;;;8.35;2.33;;;;;;;30.92;40.65;99676.77;1645994;84;21213;-40
2021/07/04 11:31:43;;;;;;;3.75;1.98;;;;;;;31.15;39.38;99681.75;1710066;83;21040;-40
2021/07/04 11:34:09;;;;;;;7.42;2.52;;;;;;;31.39;39.47;99680.69;1708355;83;20999;-40
2021/07/04 11:36:36;;;;;;;8.15;3.30;;;;;;;31.80;39.03;99678.91;1702312;83;20961;-40
2021/07/04 11:39:12;;;;;;;9.43;3.35;;;;;;;32.11;39.17;99678.36;1707270;82;21023;-40
2021/07/04 11:41:45;;;;;;;8.60;2.02;;;;;;;32.16;36.99;99671.08;1706581;83;21077;-41